Time;durP1;ratioP1;P1;durP2;ratioP2;P2;SDS_P1;SDS_P2;PMS_P1;PMS_P2;Temp;Humidity;BMP_temperature;BMP_pressure;BME280_temperature;BME280_humidity;BME280_pressure;Samples;Min_cycle;Max_cycle;Signal;HPM_P1;HPM_P2
2023/05/16 00:01:48;;;;;;;2.97;0.40;;;9.30;99.90;;;;;;5096799;28;20053;-50
2023/05/16 00:04:14;;;;;;;5.07;0.87;;;9.30;99.90;;;;;;5096756;28;20056;-49
2023/05/16 00:06:40;;;;;;;6.87;1.07;;;9.30;99.90;;;;;;5097071;28;20047;-49
2023/05/16 00:09:05;;;;;;;2.93;0.40;;;9.30;99.90;;;;;;5097034;28;20051;-49
2023/05/16 00:11:31;;;;;;;7.20;0.80;;;9.20;99.90;;;;;;5097041;28;20282;-48
2023/05/16 00:13:57;;;;;;;2.73;0.43;;;9.20;99.90;;;;;;5095656;28;20498;-49
2023/05/16 00:16:24;;;;;;;6.68;0.80;;;9.30;99.90;;;;;;5096759;28;20052;-49
2023/05/16 00:18:51;;;;;;;4.88;0.70;;;9.30;99.90;;;;;;5096777;28;20479;-48
2023/05/16 00:21:17;;;;;;;2.05;0.90;;;9.30;99.90;;;;;;5096713;28;20487;-49
2023/05/16 00:23:43;;;;;;;3.83;0.60;;;9.30;99.90;;;;;;5096657;28;20048;-49
2023/05/16 00:26:09;;;;;;;2.50;0.70;;;9.30;99.90;;;;;;5096646;28;20063;-49
2023/05/16 00:28:34;;;;;;;2.43;0.53;;;9.30;99.90;;;;;;5096555;28;20293;-51
2023/05/16 00:31:00;;;;;;;3.93;0.77;;;9.30;99.90;;;;;;5096290;28;20048;-48
2023/05/16 00:33:26;;;;;;;3.43;0.50;;;9.30;99.90;;;;;;5096843;28;20040;-49
2023/05/16 00:35:52;;;;;;;3.23;0.60;;;9.30;99.90;;;;;;5096319;28;20052;-48
2023/05/16 00:38:18;;;;;;;3.47;0.50;;;9.30;99.90;;;;;;5096414;28;20051;-49
2023/05/16 00:40:45;;;;;;;2.00;0.40;;;9.30;99.90;;;;;;5096220;28;20052;-48
2023/05/16 00:43:11;;;;;;;;;;;9.30;99.90;;;;;;5096628;28;20051;-49
2023/05/16 00:45:36;;;;;;;1.30;0.40;;;9.30;99.90;;;;;;5096134;28;19920;-49
2023/05/16 00:48:02;;;;;;;3.00;0.47;;;9.20;99.90;;;;;;5096272;28;20116;-49
2023/05/16 00:50:28;;;;;;;2.55;0.57;;;9.20;99.90;;;;;;5095982;28;20403;-49
2023/05/16 00:52:54;;;;;;;2.23;0.50;;;9.20;99.90;;;;;;5096054;28;20036;-49
2023/05/16 00:55:20;;;;;;;5.27;0.60;;;9.20;99.90;;;;;;5096135;28;20118;-49
2023/05/16 00:57:45;;;;;;;2.23;0.40;;;9.20;99.90;;;;;;5095911;28;20051;-48
2023/05/16 01:00:14;;;;;;;5.07;0.80;;;9.10;99.90;;;;;;5095884;28;20131;-49
2023/05/16 01:02:39;;;;;;;2.33;0.60;;;9.10;99.90;;;;;;5095891;28;20048;-49
2023/05/16 01:05:07;;;;;;;6.47;0.63;;;9.10;99.90;;;;;;5095918;28;20039;-48
2023/05/16 01:07:34;;;;;;;3.97;0.50;;;9.10;99.90;;;;;;5095853;28;20394;-49
2023/05/16 01:10:00;;;;;;;4.88;0.90;;;9.10;99.90;;;;;;5095021;28;20091;-48
2023/05/16 01:12:53;;;;;;;3.92;0.40;;;9.20;99.90;;;;;;5095472;28;20083;-49
2023/05/16 01:15:26;;;;;;;1.83;0.32;;;9.10;99.90;;;;;;5095673;28;20048;-49
2023/05/16 01:18:10;;;;;;;2.38;0.40;;;9.20;99.90;;;;;;5095657;28;20487;-49
2023/05/16 01:20:48;;;;;;;4.53;0.50;;;9.10;99.90;;;;;;5095553;28;20097;-49
2023/05/16 01:23:37;;;;;;;3.42;0.45;;;9.10;99.90;;;;;;5095462;28;20491;-49
2023/05/16 01:26:17;;;;;;;1.10;0.43;;;9.10;99.90;;;;;;5095525;28;20051;-48
2023/05/16 01:28:48;;;;;;;3.63;0.50;;;9.00;99.90;;;;;;5095196;28;20054;-48
2023/05/16 01:31:15;;;;;;;2.28;0.70;;;9.00;99.90;;;;;;5095083;28;20515;-49
2023/05/16 01:33:41;;;;;;;1.10;0.30;;;9.00;99.90;;;;;;5095036;28;20071;-49
2023/05/16 01:36:07;;;;;;;3.80;1.20;;;9.00;99.90;;;;;;5095165;28;20074;-49
2023/05/16 01:38:43;;;;;;;2.17;0.40;;;9.00;99.90;;;;;;5095074;28;20059;-49
2023/05/16 01:41:22;;;;;;;2.95;0.40;;;9.00;99.90;;;;;;5095268;28;20051;-49
2023/05/16 01:43:53;;;;;;;4.13;0.47;;;9.00;99.90;;;;;;5095066;28;20084;-50
2023/05/16 01:46:28;;;;;;;4.63;0.50;;;9.00;99.90;;;;;;5094964;28;20479;-48
2023/05/16 01:49:21;;;;;;;2.78;0.65;;;9.00;99.90;;;;;;5094842;28;20396;-48
2023/05/16 01:51:53;;;;;;;4.88;0.73;;;9.00;99.90;;;;;;5094940;28;20055;-48
2023/05/16 01:54:20;;;;;;;6.78;0.80;;;9.10;99.90;;;;;;5094920;28;20104;-48
2023/05/16 01:56:52;;;;;;;3.15;0.70;;;9.00;99.90;;;;;;5094829;28;20087;-48
2023/05/16 01:59:21;;;;;;;3.78;0.77;;;9.10;99.90;;;;;;5094934;28;20059;-48
2023/05/16 02:01:46;;;;;;;3.10;0.50;;;9.10;99.90;;;;;;5093924;28;20383;-48
2023/05/16 02:04:14;;;;;;;4.27;0.63;;;9.10;99.90;;;;;;5094663;28;20119;-48
2023/05/16 02:06:40;;;;;;;3.13;0.70;;;9.10;99.90;;;;;;5093604;28;20791;-48
2023/05/16 02:09:07;;;;;;;3.78;0.55;;;9.10;99.90;;;;;;5094541;28;20052;-48
2023/05/16 02:11:32;;;;;;;3.08;0.45;;;9.00;99.90;;;;;;5094636;28;20052;-49
2023/05/16 02:13:58;;;;;;;2.67;0.50;;;9.00;99.90;;;;;;5094558;28;20097;-48
2023/05/16 02:16:24;;;;;;;3.53;0.83;;;9.00;99.90;;;;;;5094565;28;20470;-49
2023/05/16 02:18:50;;;;;;;2.20;0.40;;;9.00;99.90;;;;;;5094337;28;20075;-48
2023/05/16 02:21:16;;;;;;;3.87;0.50;;;9.00;99.90;;;;;;5094081;28;20127;-48
2023/05/16 02:23:41;;;;;;;3.63;0.50;;;9.00;99.90;;;;;;5094218;28;20086;-50
2023/05/16 02:26:07;;;;;;;6.10;0.77;;;8.90;99.90;;;;;;5094392;28;20282;-52
2023/05/16 02:28:33;;;;;;;3.30;0.60;;;8.90;99.90;;;;;;5094307;28;20051;-50
2023/05/16 02:30:59;;;;;;;2.13;0.60;;;8.90;99.90;;;;;;5094239;28;20051;-49
2023/05/16 02:33:26;;;;;;;2.67;0.93;;;8.90;99.90;;;;;;5094219;28;20169;-50
2023/05/16 02:35:52;;;;;;;4.53;0.70;;;8.80;99.90;;;;;;5094166;28;20135;-52
2023/05/16 02:38:19;;;;;;;1.80;0.38;;;8.80;99.90;;;;;;5094185;28;20044;-50
2023/05/16 02:40:46;;;;;;;3.47;0.65;;;8.80;99.90;;;;;;5094154;28;20059;-51
2023/05/16 02:43:12;;;;;;;;;;;8.80;99.90;;;;;;5094624;28;20066;-52
2023/05/16 02:45:38;;;;;;;4.93;0.65;;;8.80;99.90;;;;;;5094042;28;20312;-51
2023/05/16 02:48:04;;;;;;;2.47;0.80;;;8.80;99.90;;;;;;5094175;28;20449;-52
2023/05/16 02:50:30;;;;;;;2.15;0.55;;;8.70;99.90;;;;;;5093903;28;20044;-51
2023/05/16 02:52:58;;;;;;;3.45;0.50;;;8.70;99.90;;;;;;5092833;28;20051;-50
2023/05/16 02:55:24;;;;;;;4.85;1.15;;;8.70;99.90;;;;;;5093920;28;20040;-51
2023/05/16 02:57:51;;;;;;;4.78;0.73;;;8.70;99.90;;;;;;5093953;28;20432;-52
2023/05/16 03:00:17;;;;;;;3.50;0.50;;;8.70;99.90;;;;;;5093837;28;20047;-52
2023/05/16 03:02:44;;;;;;;1.80;0.40;;;8.70;99.90;;;;;;5092793;28;20083;-51
2023/05/16 03:05:10;;;;;;;5.93;0.82;;;8.70;99.90;;;;;;5092682;28;20052;-50
2023/05/16 03:07:36;;;;;;;3.90;0.80;;;8.60;99.90;;;;;;5094000;28;20058;-49
2023/05/16 03:10:03;;;;;;;4.25;0.60;;;8.70;99.90;;;;;;5093788;28;20286;-49
2023/05/16 03:12:28;;;;;;;3.63;0.68;;;8.60;99.90;;;;;;5093644;28;20040;-48
2023/05/16 03:14:54;;;;;;;3.37;0.63;;;8.60;99.90;;;;;;5093750;28;20044;-48
2023/05/16 03:17:20;;;;;;;2.13;0.50;;;8.60;99.90;;;;;;5093718;28;20449;-49
2023/05/16 03:19:45;;;;;;;2.87;0.40;;;8.60;99.90;;;;;;5093546;28;20048;-48
2023/05/16 03:22:12;;;;;;;3.13;0.60;;;8.50;99.90;;;;;;5093889;28;20044;-49
2023/05/16 03:24:37;;;;;;;2.40;0.40;;;8.50;99.90;;;;;;5093746;28;20059;-48
2023/05/16 03:27:04;;;;;;;3.77;0.60;;;8.50;99.90;;;;;;5093661;28;20491;-48
2023/05/16 03:29:30;;;;;;;4.47;0.60;;;8.40;99.90;;;;;;5093458;28;20040;-48
2023/05/16 03:31:56;;;;;;;3.42;0.63;;;8.40;99.90;;;;;;5093660;28;20052;-48
2023/05/16 03:34:22;;;;;;;5.67;0.70;;;8.40;99.90;;;;;;5096689;28;20050;-48
2023/05/16 03:36:51;;;;;;;4.07;1.50;;;8.40;99.90;;;;;;5097992;28;20414;-48
2023/05/16 03:39:16;;;;;;;5.93;0.70;;;8.40;99.90;;;;;;5098002;28;20123;-48
2023/05/16 03:41:43;;;;;;;4.03;0.77;;;8.40;99.90;;;;;;5097451;28;20526;-48
2023/05/16 03:44:08;;;;;;;3.75;0.65;;;8.30;99.90;;;;;;5097363;28;20063;-48
2023/05/16 03:46:35;;;;;;;3.53;0.70;;;8.30;99.90;;;;;;5097545;28;20483;-48
2023/05/16 03:49:01;;;;;;;1.35;0.43;;;8.30;99.90;;;;;;5097275;28;20505;-48
2023/05/16 03:51:27;;;;;;;1.55;0.50;;;8.30;99.90;;;;;;5097491;28;20040;-47
2023/05/16 03:53:53;;;;;;;5.80;1.07;;;8.30;99.90;;;;;;5097271;28;20471;-50
2023/05/16 03:56:20;;;;;;;4.93;0.57;;;8.30;99.90;;;;;;5096069;28;20101;-48
2023/05/16 03:58:47;;;;;;;5.38;0.60;;;8.30;99.90;;;;;;5097203;28;20560;-48
2023/05/16 04:01:13;;;;;;;4.90;0.63;;;8.30;99.90;;;;;;5097125;28;20044;-48
2023/05/16 04:03:39;;;;;;;4.30;0.70;;;8.30;99.90;;;;;;5097071;28;20036;-49
2023/05/16 04:06:06;;;;;;;7.07;1.13;;;8.30;99.90;;;;;;5097358;28;20055;-49
2023/05/16 04:08:32;;;;;;;1.88;0.47;;;8.30;99.90;;;;;;5097332;28;20498;-48
2023/05/16 04:10:57;;;;;;;4.63;0.70;;;8.30;99.90;;;;;;5096906;28;20052;-48
2023/05/16 04:13:24;;;;;;;2.10;0.70;;;8.40;99.90;;;;;;5096782;28;20040;-48
2023/05/16 04:15:49;;;;;;;2.28;0.55;;;8.30;99.90;;;;;;5096901;28;20490;-48
2023/05/16 04:18:15;;;;;;;2.47;0.40;;;8.40;99.90;;;;;;5095537;28;20098;-48
2023/05/16 04:20:42;;;;;;;5.70;0.70;;;8.40;99.90;;;;;;5096828;28;20044;-48
2023/05/16 04:23:10;;;;;;;2.05;0.85;;;8.40;99.90;;;;;;5096729;28;20475;-48
2023/05/16 04:25:36;;;;;;;2.70;0.50;;;8.40;99.90;;;;;;5096677;28;20105;-47
2023/05/16 04:28:02;;;;;;;4.57;0.97;;;8.50;99.90;;;;;;5096630;28;20052;-48
2023/05/16 04:30:27;;;;;;;5.17;0.60;;;8.50;99.90;;;;;;5096342;28;20278;-48
2023/05/16 04:32:53;;;;;;;3.70;0.50;;;8.50;99.90;;;;;;5096379;28;20166;-48
2023/05/16 04:35:20;;;;;;;3.07;0.50;;;8.50;99.90;;;;;;5096389;28;20067;-48
2023/05/16 04:37:46;;;;;;;3.28;0.65;;;8.50;99.90;;;;;;5096503;28;20056;-48
2023/05/16 04:40:13;;;;;;;5.03;0.60;;;8.60;99.90;;;;;;5096430;28;20372;-48
2023/05/16 04:42:38;;;;;;;3.35;0.50;;;8.60;99.90;;;;;;5096416;28;20394;-48
2023/05/16 04:45:05;;;;;;;3.60;0.80;;;8.70;99.90;;;;;;5094964;28;20131;-47
2023/05/16 04:47:31;;;;;;;2.63;0.45;;;8.70;99.90;;;;;;5095430;28;20052;-49
2023/05/16 04:49:57;;;;;;;5.35;0.63;;;8.70;99.90;;;;;;5096236;28;20062;-48
2023/05/16 04:52:22;;;;;;;3.67;0.50;;;8.70;99.90;;;;;;5096035;28;20047;-48
2023/05/16 04:54:51;;;;;;;1.90;0.27;;;8.80;99.90;;;;;;5096482;28;20506;-50
2023/05/16 04:57:17;;;;;;;5.72;0.80;;;8.80;99.90;;;;;;5095914;28;20044;-48
2023/05/16 04:59:43;;;;;;;2.03;0.40;;;8.80;99.90;;;;;;5095968;28;20047;-48
2023/05/16 05:02:08;;;;;;;3.63;0.67;;;8.80;99.90;;;;;;5095767;28;20282;-48
2023/05/16 05:04:34;;;;;;;3.53;0.80;;;8.90;99.90;;;;;;5096147;28;20282;-49
2023/05/16 05:07:00;;;;;;;3.30;0.40;;;8.80;99.90;;;;;;5095947;28;20505;-48
2023/05/16 05:09:26;;;;;;;1.20;0.40;;;8.90;99.90;;;;;;5095820;28;20086;-48
2023/05/16 05:11:51;;;;;;;1.73;0.30;;;8.90;99.90;;;;;;5095758;28;20047;-48
2023/05/16 05:14:17;;;;;;;4.20;0.40;;;8.90;99.90;;;;;;5095441;28;20044;-48
2023/05/16 05:16:43;;;;;;;1.43;0.37;;;9.00;99.90;;;;;;5096133;28;20051;-48
2023/05/16 05:19:09;;;;;;;4.47;0.43;;;9.00;99.90;;;;;;5095648;28;20040;-48
2023/05/16 05:21:34;;;;;;;3.13;0.40;;;9.10;99.90;;;;;;5094678;28;20134;-47
2023/05/16 05:24:00;;;;;;;3.70;0.57;;;9.10;99.90;;;;;;5095946;28;20040;-52
2023/05/16 05:26:27;;;;;;;4.63;0.70;;;9.10;99.90;;;;;;5094448;28;20511;-51
2023/05/16 05:28:53;;;;;;;4.50;0.30;;;9.20;99.90;;;;;;5095377;28;20127;-50
2023/05/16 05:31:19;;;;;;;4.80;0.80;;;9.20;99.90;;;;;;5095296;28;20135;-52
2023/05/16 05:33:45;;;;;;;1.70;0.50;;;9.30;99.90;;;;;;5094923;28;20040;-50
2023/05/16 05:36:11;;;;;;;3.40;0.30;;;9.40;99.90;;;;;;5095332;28;20059;-50
2023/05/16 05:38:37;;;;;;;4.72;0.50;;;9.60;99.90;;;;;;5095497;28;20290;-49
2023/05/16 05:41:03;;;;;;;5.22;0.68;;;9.90;99.90;;;;;;5095047;28;20036;-52
2023/05/16 05:43:29;;;;;;;;;;;10.10;99.90;;;;;;5095546;28;20051;-52
2023/05/16 05:45:55;;;;;;;5.10;0.55;;;10.30;99.90;;;;;;5094086;28;19924;-51
2023/05/16 05:48:21;;;;;;;2.15;0.45;;;10.60;99.90;;;;;;5095099;28;20079;-50
2023/05/16 05:50:47;;;;;;;5.20;0.55;;;10.70;99.90;;;;;;5094002;28;20044;-51
2023/05/16 05:53:13;;;;;;;2.60;0.40;;;10.80;99.90;;;;;;5094725;28;20104;-48
2023/05/16 05:55:41;;;;;;;3.33;0.60;;;10.80;99.90;;;;;;5094427;28;20419;-51
2023/05/16 05:58:06;;;;;;;5.03;0.50;;;10.80;99.90;;;;;;5094611;28;20048;-50
2023/05/16 06:00:32;;;;;;;2.63;0.57;;;10.90;99.90;;;;;;5093455;28;20381;-51
2023/05/16 06:02:58;;;;;;;4.27;0.30;;;10.90;99.90;;;;;;5094873;28;20036;-48
2023/05/16 06:05:23;;;;;;;4.83;0.60;;;10.90;99.90;;;;;;5094764;28;20110;-49
2023/05/16 06:07:49;;;;;;;2.40;0.50;;;11.00;99.90;;;;;;5095062;28;20449;-48
2023/05/16 06:10:15;;;;;;;3.40;0.40;;;11.30;99.90;;;;;;5093595;28;20487;-48
2023/05/16 06:12:40;;;;;;;2.87;0.43;;;11.70;99.90;;;;;;5094362;28;20298;-48
2023/05/16 06:15:07;;;;;;;4.30;0.50;;;11.90;99.90;;;;;;5094355;28;20044;-48
2023/05/16 06:17:33;;;;;;;1.48;0.20;;;12.00;99.90;;;;;;5093505;28;20048;-49
2023/05/16 06:19:58;;;;;;;2.67;0.50;;;12.00;99.90;;;;;;5094444;28;20040;-47
2023/05/16 06:22:24;;;;;;;4.80;0.67;;;12.10;99.90;;;;;;5093452;28;20059;-49
2023/05/16 06:24:50;;;;;;;3.00;0.60;;;12.00;99.90;;;;;;5094667;28;20044;-48
2023/05/16 06:27:15;;;;;;;2.47;0.40;;;12.10;99.90;;;;;;5094390;28;20040;-48
2023/05/16 06:29:41;;;;;;;3.87;0.40;;;12.30;99.90;;;;;;5092978;28;20479;-47
2023/05/16 06:32:07;;;;;;;2.83;0.40;;;12.40;99.90;;;;;;5094119;28;20037;-49
2023/05/16 06:34:34;;;;;;;;;;;12.40;99.90;;;;;;5094314;28;20134;-47
2023/05/16 06:37:02;;;;;;;2.75;0.30;;;12.40;99.90;;;;;;5093174;28;19920;-46
2023/05/16 06:39:28;;;;;;;3.20;0.40;;;12.20;99.90;;;;;;5094154;28;20075;-49
2023/05/16 06:41:54;;;;;;;5.83;0.70;;;12.00;99.90;;;;;;5093923;28;20490;-48
2023/05/16 06:44:20;;;;;;;3.10;0.40;;;11.70;99.90;;;;;;5092913;28;20056;-50
2023/05/16 06:46:46;;;;;;;3.15;0.35;;;11.50;99.90;;;;;;5094173;28;20048;-45
2023/05/16 06:49:11;;;;;;;1.50;0.40;;;11.50;99.90;;;;;;5093998;28;20479;-49
2023/05/16 06:51:37;;;;;;;1.97;0.50;;;11.50;99.90;;;;;;5093871;28;20093;-50
2023/05/16 06:54:03;;;;;;;2.13;0.23;;;11.80;99.90;;;;;;5093844;28;20055;-48
2023/05/16 06:56:30;;;;;;;1.50;0.30;;;12.00;99.90;;;;;;5092876;28;20055;-45
2023/05/16 06:58:56;;;;;;;1.45;0.35;;;12.20;99.90;;;;;;5093822;28;20055;-49
2023/05/16 07:01:21;;;;;;;3.00;0.40;;;12.20;99.90;;;;;;5093843;28;20043;-49
2023/05/16 07:03:47;;;;;;;2.33;0.40;;;12.30;99.90;;;;;;5093808;28;20048;-46
2023/05/16 07:06:12;;;;;;;2.23;0.40;;;12.40;99.90;;;;;;5092958;28;20048;-47
2023/05/16 07:08:38;;;;;;;2.20;0.43;;;12.60;99.90;;;;;;5091704;28;20093;-47
2023/05/16 07:11:04;;;;;;;1.87;0.50;;;13.00;99.90;;;;;;5093756;28;20044;-50
2023/05/16 07:13:30;;;;;;;3.05;0.68;;;13.20;99.90;;;;;;5093639;28;20048;-46
2023/05/16 07:15:55;;;;;;;4.73;0.50;;;13.20;99.90;;;;;;5093800;28;20375;-48
2023/05/16 07:18:21;;;;;;;4.83;0.50;;;12.90;99.90;;;;;;5093507;28;20059;-50
2023/05/16 07:20:47;;;;;;;5.20;0.80;;;12.50;99.90;;;;;;5093683;28;20062;-46
2023/05/16 07:23:13;;;;;;;3.37;1.03;;;12.30;99.90;;;;;;5093512;28;20055;-51
2023/05/16 07:25:38;;;;;;;0.90;0.23;;;12.10;99.90;;;;;;5093775;28;20044;-49
2023/05/16 07:28:04;;;;;;;3.53;0.47;;;12.00;99.90;;;;;;5093436;28;20451;-50
2023/05/16 07:30:30;;;;;;;5.30;1.60;;;11.80;99.90;;;;;;5093613;28;20052;-49
2023/05/16 07:32:55;;;;;;;2.90;0.40;;;11.60;99.90;;;;;;5092265;28;20047;-50
2023/05/16 07:35:21;;;;;;;5.10;0.67;;;11.50;99.90;;;;;;5093335;28;20056;-50
2023/05/16 07:37:47;;;;;;;4.10;0.60;;;11.60;99.90;;;;;;5093488;28;20094;-46
2023/05/16 07:40:13;;;;;;;3.10;0.33;;;11.70;99.90;;;;;;5093389;28;20048;-47
2023/05/16 07:42:39;;;;;;;2.47;0.60;;;11.70;99.90;;;;;;5093318;28;20119;-46
2023/05/16 07:45:06;;;;;;;5.90;0.45;;;11.70;99.90;;;;;;5092471;28;20123;-51
2023/05/16 07:47:32;;;;;;;4.18;0.55;;;11.60;99.90;;;;;;5093446;28;20152;-49
2023/05/16 07:49:57;;;;;;;5.75;0.75;;;11.50;99.90;;;;;;5093238;28;20079;-49
2023/05/16 07:52:23;;;;;;;3.37;0.47;;;11.50;99.90;;;;;;5092184;28;20141;-47
2023/05/16 07:54:49;;;;;;;2.20;0.40;;;11.50;99.90;;;;;;5093410;28;20056;-46
2023/05/16 07:57:15;;;;;;;4.70;0.60;;;11.60;99.90;;;;;;5093081;28;20055;-50
2023/05/16 07:59:41;;;;;;;3.93;0.40;;;11.70;99.90;;;;;;5093413;28;20040;-51
2023/05/16 08:02:09;;;;;;;3.72;0.50;;;11.70;99.90;;;;;;5093258;28;20293;-48
2023/05/16 08:04:35;;;;;;;3.85;0.60;;;11.80;99.90;;;;;;5093224;28;20044;-46
2023/05/16 08:07:01;;;;;;;3.95;0.38;;;11.90;99.90;;;;;;5093209;28;20052;-50
2023/05/16 08:09:26;;;;;;;3.47;0.40;;;11.80;99.90;;;;;;5093202;28;20101;-47
2023/05/16 08:11:52;;;;;;;3.20;0.43;;;11.80;99.90;;;;;;5092993;28;20044;-49
2023/05/16 08:14:18;;;;;;;4.07;0.87;;;11.70;99.90;;;;;;5092996;28;20044;-49
2023/05/16 08:16:43;;;;;;;1.97;0.30;;;11.80;99.90;;;;;;5093179;28;20088;-48
2023/05/16 08:19:09;;;;;;;3.50;1.20;;;11.80;99.90;;;;;;5094483;28;20051;-50
2023/05/16 08:21:35;;;;;;;3.20;0.27;;;11.90;99.90;;;;;;5096635;28;20051;-49
2023/05/16 08:24:00;;;;;;;1.80;0.30;;;12.00;99.90;;;;;;5096776;28;20055;-47
2023/05/16 08:26:26;;;;;;;4.07;0.50;;;12.00;99.90;;;;;;5096699;28;20047;-51
2023/05/16 08:28:52;;;;;;;4.30;0.57;;;11.90;99.90;;;;;;5096709;28;20093;-50
2023/05/16 08:31:18;;;;;;;5.40;0.33;;;11.70;99.90;;;;;;5096828;28;20044;-52
2023/05/16 08:33:43;;;;;;;5.53;0.33;;;11.50;99.90;;;;;;5096438;28;20075;-52
2023/05/16 08:36:09;;;;;;;2.27;0.50;;;11.50;99.90;;;;;;5096760;28;20508;-52
2023/05/16 08:38:35;;;;;;;2.05;0.50;;;11.50;99.90;;;;;;5096353;28;20094;-53
2023/05/16 08:41:01;;;;;;;2.67;0.32;;;11.60;99.90;;;;;;5096129;28;20144;-49
2023/05/16 08:43:27;;;;;;;2.47;0.50;;;11.70;99.90;;;;;;5095545;28;20098;-51
2023/05/16 08:45:53;;;;;;;1.80;0.33;;;11.80;99.90;;;;;;5096629;28;20545;-46
2023/05/16 08:48:22;;;;;;;4.47;0.57;;;11.90;99.90;;;;;;5096012;28;20289;-51
2023/05/16 08:50:49;;;;;;;2.03;0.50;;;12.00;99.90;;;;;;5094940;28;20054;-51
2023/05/16 08:53:21;;;;;;;3.88;1.13;;;12.10;99.90;;;;;;5096020;28;20372;-50
2023/05/16 08:55:48;;;;;;;1.77;0.32;;;12.10;99.90;;;;;;5095101;28;20135;-53
2023/05/16 08:58:14;;;;;;;4.43;0.52;;;12.10;99.90;;;;;;5096030;28;20052;-50
2023/05/16 09:00:40;;;;;;;3.10;0.32;;;12.00;99.90;;;;;;5096113;28;20059;-52
2023/05/16 09:03:06;;;;;;;2.97;0.50;;;11.90;99.90;;;;;;5095985;28;20050;-54
2023/05/16 09:05:32;;;;;;;3.90;0.30;;;11.90;99.90;;;;;;5095811;28;20473;-46
2023/05/16 09:07:59;;;;;;;2.35;0.35;;;12.00;99.90;;;;;;5095731;28;20138;-49
2023/05/16 09:10:24;;;;;;;3.28;0.40;;;12.10;99.90;;;;;;5095662;28;20440;-51
2023/05/16 09:12:50;;;;;;;2.67;0.50;;;12.10;99.90;;;;;;5095772;28;20086;-48
2023/05/16 09:15:18;;;;;;;2.83;0.52;;;12.10;99.90;;;;;;5095775;28;20052;-49
2023/05/16 09:17:45;;;;;;;5.97;0.77;;;12.00;99.90;;;;;;5095423;28;20498;-51
2023/05/16 09:20:18;;;;;;;2.45;0.40;;;11.90;99.90;;;;;;5095474;28;20130;-46
2023/05/16 09:22:52;;;;;;;4.80;0.45;;;11.90;99.90;;;;;;5095572;28;20040;-47
2023/05/16 09:25:18;;;;;;;2.75;0.55;;;11.90;99.90;;;;;;5096143;28;20047;-53
2023/05/16 09:27:47;;;;;;;6.60;1.05;;;12.10;99.90;;;;;;5095416;28;20063;-52
2023/05/16 09:30:17;;;;;;;2.85;0.38;;;12.20;99.90;;;;;;5094720;28;20056;-50
2023/05/16 09:32:44;;;;;;;3.00;0.30;;;12.30;99.90;;;;;;5094289;28;20044;-48
2023/05/16 09:35:15;;;;;;;5.22;0.55;;;12.30;99.90;;;;;;5095110;28;20498;-51
2023/05/16 09:37:49;;;;;;;1.60;0.32;;;12.20;99.90;;;;;;5095295;28;20052;-52
2023/05/16 09:40:15;;;;;;;1.77;0.28;;;12.10;99.90;;;;;;5095244;28;20044;-51
2023/05/16 09:42:45;;;;;;;1.48;0.57;;;12.00;99.90;;;;;;5095081;28;20044;-49
2023/05/16 09:45:13;;;;;;;2.42;0.52;;;11.80;99.90;;;;;;5095018;28;20055;-51
2023/05/16 09:47:45;;;;;;;3.08;0.20;;;11.70;99.90;;;;;;5093867;28;20052;-49
2023/05/16 09:50:13;;;;;;;3.08;0.50;;;11.70;99.90;;;;;;5095146;28;20498;-46
2023/05/16 09:52:39;;;;;;;4.25;0.52;;;11.70;99.90;;;;;;5095075;28;20067;-46
2023/05/16 09:55:08;;;;;;;2.85;0.45;;;11.60;99.90;;;;;;5094890;28;20059;-46
2023/05/16 09:57:38;;;;;;;5.80;0.60;;;11.50;99.90;;;;;;5093801;28;20048;-52
2023/05/16 10:00:10;;;;;;;4.32;0.40;;;11.50;99.90;;;;;;5094577;28;20047;-50
2023/05/16 10:02:38;;;;;;;4.53;0.50;;;11.60;99.90;;;;;;5094900;28;20051;-46
2023/05/16 10:05:04;;;;;;;1.08;0.20;;;11.80;99.90;;;;;;5094808;28;20091;-45
2023/05/16 10:07:34;;;;;;;6.53;0.95;;;11.90;99.90;;;;;;5094675;28;20044;-46
2023/05/16 10:10:07;;;;;;;2.28;0.50;;;12.00;99.90;;;;;;5093654;28;20052;-49
2023/05/16 10:12:33;;;;;;;2.42;0.30;;;12.00;99.90;;;;;;5094494;28;20048;-46
2023/05/16 10:15:03;;;;;;;;;;;12.00;99.90;;;;;;5095038;28;20071;-47
2023/05/16 10:17:32;;;;;;;0.70;0.17;;;12.00;99.90;;;;;;5095130;28;20303;-47
2023/05/16 10:20:05;;;;;;;2.33;0.38;;;12.00;99.90;;;;;;5094450;28;20046;-47
2023/05/16 10:22:34;;;;;;;1.45;0.30;;;11.80;99.90;;;;;;5093654;28;20054;-48
2023/05/16 10:25:37;;;;;;;0.45;0.13;;;11.50;99.90;;;;;;5094268;28;20101;-47
2023/05/16 10:28:04;;;;;;;0.77;0.25;;;11.20;99.90;;;;;;5094835;28;20048;-48
2023/05/16 10:30:32;;;;;;;0.60;0.20;;;10.90;99.90;;;;;;5094227;28;20067;-47
2023/05/16 10:33:00;;;;;;;2.05;0.35;;;10.90;99.90;;;;;;5094063;28;20044;-49
2023/05/16 10:35:26;;;;;;;1.02;0.50;;;10.90;99.90;;;;;;5094290;28;20387;-45
2023/05/16 10:37:53;;;;;;;1.45;0.47;;;11.10;99.90;;;;;;5094103;28;20487;-46
2023/05/16 10:40:20;;;;;;;3.05;0.30;;;11.20;99.90;;;;;;5094283;28;20117;-48
2023/05/16 10:43:00;;;;;;;1.50;0.20;;;11.40;99.90;;;;;;5094113;28;20471;-47
2023/05/16 10:45:26;;;;;;;2.33;0.40;;;11.60;99.90;;;;;;5093085;28;20040;-47
2023/05/16 10:47:56;;;;;;;2.28;0.40;;;11.80;99.90;;;;;;5094095;28;20051;-50
2023/05/16 10:50:32;;;;;;;2.88;0.40;;;11.90;99.90;;;;;;5093974;28;20089;-46
2023/05/16 10:53:21;;;;;;;2.00;0.40;;;12.00;99.90;;;;;;5092947;28;20051;-48
2023/05/16 10:56:07;;;;;;;2.05;0.50;;;11.90;99.90;;;;;;5094218;28;20044;-46
2023/05/16 10:58:39;;;;;;;1.70;0.30;;;11.90;99.90;;;;;;5094022;28;20051;-48
2023/05/16 11:01:22;;;;;;;1.38;0.30;;;11.80;99.90;;;;;;5094007;28;20090;-47
2023/05/16 11:06:28;;;;;;;3.38;0.35;;;12.10;99.90;;;;;;5093970;28;20052;-46
2023/05/16 11:09:07;;;;;;;4.47;0.40;;;12.20;99.90;;;;;;5092490;28;20055;-48
2023/05/16 11:11:38;;;;;;;2.53;0.70;;;12.20;99.90;;;;;;5093609;28;20391;-49
2023/05/16 11:14:04;;;;;;;4.47;0.47;;;12.30;99.90;;;;;;5093685;28;20047;-50
2023/05/16 11:16:30;;;;;;;2.90;0.30;;;12.40;99.90;;;;;;5093662;28;20040;-46
2023/05/16 11:19:07;;;;;;;5.20;0.50;;;12.50;99.90;;;;;;5093758;28;20052;-48
2023/05/16 11:22:10;;;;;;;0.90;0.20;;;12.60;99.90;;;;;;5093640;28;20048;-49
2023/05/16 11:24:38;;;;;;;3.78;1.27;;;12.70;99.90;;;;;;5075785;28;20063;-48
2023/05/16 11:27:04;;;;;;;2.60;0.63;;;12.80;99.90;;;;;;5093710;28;20087;-47
2023/05/16 11:29:32;;;;;;;2.63;0.47;;;12.80;99.90;;;;;;5093551;28;20055;-49
2023/05/16 11:31:59;;;;;;;3.38;0.77;;;13.00;99.90;;;;;;5093205;28;20558;-48
2023/05/16 11:34:25;;;;;;;3.75;0.60;;;13.20;99.90;;;;;;5093519;28;20105;-51
2023/05/16 11:36:51;;;;;;;3.35;0.50;;;13.30;99.90;;;;;;5093522;28;20056;-53
2023/05/16 11:39:20;;;;;;;3.07;0.50;;;13.40;99.90;;;;;;5093596;28;20513;-46
2023/05/16 11:41:45;;;;;;;3.42;0.45;;;13.50;99.90;;;;;;5093239;28;20784;-49
2023/05/16 11:44:11;;;;;;;2.70;0.47;;;13.70;99.90;;;;;;5093560;28;20149;-49
2023/05/16 11:46:40;;;;;;;2.30;0.50;;;13.70;99.90;;;;;;5093358;28;20561;-45
2023/05/16 11:49:08;;;;;;;2.78;0.50;;;13.70;99.90;;;;;;5093401;28;20093;-50
2023/05/16 11:51:38;;;;;;;3.90;0.60;;;13.50;99.90;;;;;;5093368;28;20546;-47
2023/05/16 11:54:04;;;;;;;1.77;0.40;;;13.40;99.90;;;;;;5094837;28;20056;-48
2023/05/16 11:56:31;;;;;;;1.90;0.88;;;13.40;99.90;;;;;;5097484;28;20090;-52
2023/05/16 11:58:58;;;;;;;3.25;0.70;;;13.40;99.90;;;;;;5097068;28;20459;-49
2023/05/16 12:01:24;;;;;;;3.45;0.55;;;13.30;99.90;;;;;;5097123;28;20051;-47
2023/05/16 12:03:56;;;;;;;3.13;1.35;;;13.30;99.90;;;;;;5096426;28;20048;-48
2023/05/16 12:06:22;;;;;;;3.53;0.38;;;13.40;99.90;;;;;;5096971;28;20518;-49
2023/05/16 12:08:51;;;;;;;5.07;0.73;;;13.40;99.90;;;;;;5096863;28;20043;-46
2023/05/16 12:11:17;;;;;;;3.75;0.45;;;13.30;99.90;;;;;;5096799;28;20086;-53
2023/05/16 12:13:43;;;;;;;4.13;0.63;;;13.20;99.90;;;;;;5096652;28;20467;-47
2023/05/16 12:16:11;;;;;;;5.85;1.10;;;13.00;99.90;;;;;;5097107;28;20087;-52
2023/05/16 12:18:38;;;;;;;4.57;0.98;;;12.80;99.90;;;;;;5096543;28;20449;-46
2023/05/16 12:21:04;;;;;;;3.15;0.90;;;12.60;99.90;;;;;;5096757;28;20048;-50
2023/05/16 12:23:32;;;;;;;5.20;1.10;;;12.60;99.90;;;;;;5096874;28;20047;-46
2023/05/16 12:26:00;;;;;;;5.45;0.70;;;12.60;99.90;;;;;;5096660;28;20487;-48
2023/05/16 12:28:33;;;;;;;1.30;0.50;;;12.60;99.90;;;;;;5096430;28;20403;-46
2023/05/16 12:30:58;;;;;;;2.60;0.63;;;12.50;99.90;;;;;;5097076;28;20052;-48
2023/05/16 12:33:24;;;;;;;2.95;0.77;;;12.50;99.90;;;;;;5097018;28;20361;-48
2023/05/16 12:35:51;;;;;;;3.65;0.60;;;12.50;99.90;;;;;;5096569;28;20059;-51
2023/05/16 12:38:19;;;;;;;3.55;0.90;;;12.50;99.90;;;;;;5096339;28;20453;-47
2023/05/16 12:40:45;;;;;;;3.63;0.85;;;12.50;99.90;;;;;;5096323;28;20398;-46
2023/05/16 12:43:21;;;;;;;3.47;0.88;;;12.50;99.90;;;;;;5096404;28;20048;-46
2023/05/16 12:45:52;;;;;;;3.40;0.93;;;12.50;99.90;;;;;;5096406;28;20036;-49
2023/05/16 12:48:18;;;;;;;2.63;0.65;;;12.60;99.90;;;;;;5096341;28;20498;-53
2023/05/16 12:50:47;;;;;;;3.25;0.65;;;12.60;99.90;;;;;;5096314;28;20087;-50
2023/05/16 12:53:17;;;;;;;2.38;0.65;;;12.50;99.90;;;;;;5095798;28;20540;-48
2023/05/16 12:55:43;;;;;;;3.60;0.80;;;12.50;99.90;;;;;;5096194;28;20048;-46
2023/05/16 12:58:10;;;;;;;4.05;1.10;;;12.40;99.90;;;;;;5096107;28;20047;-45